KEKY

Bessemer Airport

Bessemer, Alabama, USA
METAR KEKY 171556Z AUTO 21005KT 10SM BKN017 OVC022 27/24 A3017 RMK AO2 RAB02E13 SLP222 P0000 T02720244
Observed Flight Rules
Aug-17 @ 15:56 UTC (55 minutes ago) Marginal Visual Flight Rules
Wind Visibility Clouds
210° at 5 knots 10 miles
  • Broken at 1,700' AGL
  • Overcast at 2,200' AGL
Temperatures Readings Precipitation
Current 27°C / 81°F
Dewpoint 24°C / 75°F
Humidity 84%
Altimeter 30.17" Hg
Pressure 1022.2 hPa
Elevation 213
Current Rain 0.005
METAR KEKY 171556Z AUTO 21005KT 10SM BKN017 OVC022 27/24 A3017 RMK AO2 RAB02E13 SLP222 P0000 T02720244
Observed Flight Rules
Aug-17 @ 15:56 UTC
(55 minutes ago)
MVFR
Wind Visibility
210° at 5 knots 10 miles
Clouds
  • Broken at 1,700' AGL
  • Overcast at 2,200' AGL
Temperature Dewpoint
27°C / 81°F 24°C / 75°F
Humidity Altimeter Pressure
84% 30.17" Hg 1022.2 hPa
Current Rain
0.005